Time;durP1;ratioP1;P1;durP2;ratioP2;P2;SDS_P1;SDS_P2;PMS_P1;PMS_P2;Temp;Humidity;BMP_temperature;BMP_pressure;BME280_temperature;BME280_humidity;BME280_pressure;Samples;Min_cycle;Max_cycle;Signal;HPM_P1;HPM_P2
2023/09/27 00:01:33;;;;;;;8.55;6.70;;;13.90;99.90;;;;;;4938265;29;20297;-81
2023/09/27 00:04:00;;;;;;;8.05;6.20;;;14.00;99.90;;;;;;4933752;29;20295;-80
2023/09/27 00:06:27;;;;;;;7.73;6.20;;;14.00;99.90;;;;;;4939959;29;20297;-81
2023/09/27 00:08:54;;;;;;;7.40;6.20;;;13.90;99.90;;;;;;4938456;29;20234;-79
2023/09/27 00:11:20;;;;;;;7.33;5.77;;;13.80;99.90;;;;;;4937375;29;20207;-80
2023/09/27 00:13:49;;;;;;;8.00;6.10;;;13.80;99.90;;;;;;4937587;29;20258;-80
2023/09/27 00:16:15;;;;;;;6.57;5.87;;;13.90;99.90;;;;;;4940404;29;20207;-79
2023/09/27 00:18:43;;;;;;;7.27;5.93;;;13.90;99.90;;;;;;4938739;29;20234;-78
2023/09/27 00:21:10;;;;;;;8.17;6.17;;;13.90;99.90;;;;;;4930656;29;20588;-81
2023/09/27 00:23:37;;;;;;;7.03;6.00;;;13.70;99.90;;;;;;4946000;29;20211;-78
2023/09/27 00:26:04;;;;;;;9.27;7.27;;;13.60;99.90;;;;;;4939744;29;20211;-80
2023/09/27 00:28:30;;;;;;;8.53;6.50;;;13.30;99.90;;;;;;4934508;29;20840;-80
2023/09/27 00:30:58;;;;;;;9.67;7.40;;;13.10;99.90;;;;;;4938382;29;20642;-80
2023/09/27 00:33:25;;;;;;;9.77;6.67;;;13.10;99.90;;;;;;4934051;29;20290;-80
2023/09/27 00:35:52;;;;;;;8.98;6.85;;;13.30;99.90;;;;;;4930530;29;20646;-79
2023/09/27 00:38:19;;;;;;;9.13;6.60;;;13.40;99.90;;;;;;4937390;29;20277;-81
2023/09/27 00:40:47;;;;;;;9.80;6.47;;;13.40;99.90;;;;;;4938116;29;20217;-81
2023/09/27 00:43:26;;;;;;;10.52;7.20;;;13.50;99.90;;;;;;4938023;29;20590;-80
2023/09/27 00:45:54;;;;;;;10.55;6.72;;;13.50;99.90;;;;;;4939595;29;20230;-79
2023/09/27 00:48:22;;;;;;;8.53;6.20;;;13.50;99.90;;;;;;4937633;29;20235;-80
2023/09/27 00:50:49;;;;;;;9.00;6.50;;;13.50;99.90;;;;;;4936472;29;20203;-81
2023/09/27 00:53:16;;;;;;;8.10;6.75;;;13.50;99.90;;;;;;4938215;29;20214;-80
2023/09/27 00:55:43;;;;;;;9.73;7.30;;;13.60;99.90;;;;;;4938118;29;20327;-81
2023/09/27 00:58:11;;;;;;;9.27;7.43;;;13.70;99.90;;;;;;4940749;29;20695;-79
2023/09/27 01:00:39;;;;;;;7.33;6.63;;;13.70;99.90;;;;;;4942872;29;20203;-81
2023/09/27 01:03:06;;;;;;;9.83;6.83;;;13.60;99.90;;;;;;4941609;29;20294;-80
2023/09/27 01:05:34;;;;;;;8.65;6.80;;;13.60;99.90;;;;;;4932682;29;20730;-80
2023/09/27 01:08:01;;;;;;;7.65;6.43;;;13.50;99.90;;;;;;4941510;29;20223;-81
2023/09/27 01:10:28;;;;;;;7.30;5.70;;;13.70;99.90;;;;;;4922691;29;20211;-81
2023/09/27 01:12:54;;;;;;;10.03;6.63;;;13.70;99.90;;;;;;4940361;29;20298;-79
2023/09/27 01:15:21;;;;;;;6.97;5.60;;;13.60;99.90;;;;;;4941198;29;20333;-80
2023/09/27 01:17:54;;;;;;;8.07;5.93;;;13.50;99.90;;;;;;4940981;29;20305;-81
2023/09/27 01:20:21;;;;;;;7.30;5.72;;;13.50;99.90;;;;;;4941687;29;20213;-79
2023/09/27 01:22:55;;;;;;;8.07;6.20;;;13.50;99.90;;;;;;4935136;29;20207;-81
2023/09/27 01:25:23;;;;;;;8.13;5.83;;;13.30;99.90;;;;;;4941747;29;20199;-80
2023/09/27 01:27:49;;;;;;;6.88;5.85;;;13.30;99.90;;;;;;4940970;29;20676;-79
2023/09/27 01:30:16;;;;;;;8.33;6.33;;;13.30;99.90;;;;;;4941796;29;20593;-79
2023/09/27 01:32:43;;;;;;;8.05;5.93;;;13.20;99.90;;;;;;4936829;29;20403;-81
2023/09/27 01:35:10;;;;;;;7.53;6.35;;;13.20;99.90;;;;;;4940451;29;20298;-79
2023/09/27 01:37:37;;;;;;;9.67;6.70;;;13.20;99.90;;;;;;4938752;29;20243;-80
2023/09/27 01:40:09;;;;;;;7.65;5.70;;;13.20;99.90;;;;;;4940584;29;20290;-79
2023/09/27 01:42:41;;;;;;;9.77;6.23;;;13.10;99.90;;;;;;4935294;29;20215;-79
2023/09/27 01:45:10;;;;;;;9.15;6.15;;;13.10;99.90;;;;;;4939985;29;20289;-80
2023/09/27 01:47:36;;;;;;;10.17;6.30;;;12.90;99.90;;;;;;4931958;29;20711;-79
2023/09/27 01:50:03;;;;;;;9.67;6.10;;;13.00;99.90;;;;;;4940819;29;20639;-80
2023/09/27 01:52:30;;;;;;;9.50;5.90;;;13.00;99.90;;;;;;4940220;29;20221;-80
2023/09/27 01:54:57;;;;;;;7.20;6.03;;;13.10;99.90;;;;;;4940286;29;20265;-80
2023/09/27 01:57:25;;;;;;;7.97;5.80;;;13.00;99.90;;;;;;4939950;29;20265;-80
2023/09/27 01:59:52;;;;;;;9.47;5.70;;;12.90;99.90;;;;;;4932204;29;20295;-80
2023/09/27 02:02:19;;;;;;;9.03;6.20;;;12.70;99.90;;;;;;4939171;29;20667;-79
2023/09/27 02:04:45;;;;;;;7.87;6.10;;;12.60;99.90;;;;;;4931633;29;20199;-80
2023/09/27 02:07:12;;;;;;;8.67;5.93;;;12.80;99.90;;;;;;4929192;29;20295;-80
2023/09/27 02:09:39;;;;;;;6.80;6.00;;;12.70;99.90;;;;;;4934267;29;20211;-79
2023/09/27 02:12:06;;;;;;;7.43;6.67;;;12.50;99.90;;;;;;4943588;29;20203;-79
2023/09/27 02:14:34;;;;;;;9.10;6.27;;;12.20;99.90;;;;;;4939959;29;20231;-80
2023/09/27 02:17:01;;;;;;;11.30;7.13;;;12.00;99.90;;;;;;4940905;29;20282;-78
2023/09/27 02:19:28;;;;;;;10.60;6.60;;;11.90;99.90;;;;;;4940860;29;20211;-81
2023/09/27 02:21:55;;;;;;;8.30;7.07;;;12.10;99.90;;;;;;4932222;29;20207;-81
2023/09/27 02:24:21;;;;;;;9.47;6.80;;;12.20;99.90;;;;;;4935503;29;20203;-81
2023/09/27 02:26:48;;;;;;;8.67;6.87;;;12.30;99.90;;;;;;4939302;29;20214;-80
2023/09/27 02:29:16;;;;;;;10.87;6.70;;;12.40;99.90;;;;;;4933447;29;20254;-79
2023/09/27 02:31:44;;;;;;;9.53;6.47;;;12.50;99.90;;;;;;4939721;29;20199;-80
2023/09/27 02:34:12;;;;;;;10.40;6.60;;;12.50;99.90;;;;;;4941820;29;20311;-79
2023/09/27 02:36:39;;;;;;;8.90;6.47;;;12.60;99.90;;;;;;4940710;29;20645;-80
2023/09/27 02:39:07;;;;;;;8.70;5.60;;;12.50;99.90;;;;;;4940592;29;20271;-80
2023/09/27 02:41:34;;;;;;;10.23;6.57;;;12.50;99.90;;;;;;4940104;29;20203;-81
2023/09/27 02:44:01;;;;;;;9.40;5.97;;;12.50;99.90;;;;;;4936704;29;20226;-79
2023/09/27 02:46:27;;;;;;;11.87;6.30;;;12.50;99.90;;;;;;4940014;29;20199;-79
2023/09/27 02:48:56;;;;;;;8.20;6.37;;;12.50;99.90;;;;;;4940066;29;20317;-79
2023/09/27 02:51:23;;;;;;;8.73;6.37;;;12.60;99.90;;;;;;4939695;29;20670;-80
2023/09/27 02:53:50;;;;;;;11.10;6.97;;;12.50;99.90;;;;;;4937686;29;20203;-78
2023/09/27 02:56:17;;;;;;;5.30;4.77;;;12.60;99.90;;;;;;4925795;29;20234;-79
2023/09/27 02:58:44;;;;;;;11.27;6.70;;;12.40;99.90;;;;;;4939488;29;20744;-80
2023/09/27 03:01:11;;;;;;;10.13;6.83;;;12.50;99.90;;;;;;4939864;29;20695;-79
2023/09/27 03:03:39;;;;;;;7.50;6.27;;;12.60;99.90;;;;;;4931668;29;20263;-79
2023/09/27 03:06:13;;;;;;;9.23;6.90;;;12.60;99.90;;;;;;4931466;29;20215;-80
2023/09/27 03:08:40;;;;;;;11.03;6.90;;;12.60;99.90;;;;;;4934135;29;20227;-81
2023/09/27 03:11:07;;;;;;;8.10;6.77;;;13.20;99.90;;;;;;4941630;29;20213;-81
2023/09/27 03:13:36;;;;;;;8.97;6.63;;;12.90;99.90;;;;;;4935607;29;20216;-81
2023/09/27 03:16:04;;;;;;;10.90;7.53;;;12.90;99.90;;;;;;4939331;29;20241;-80
2023/09/27 03:18:31;;;;;;;9.73;7.20;;;12.90;99.90;;;;;;4939749;29;20227;-80
2023/09/27 03:20:58;;;;;;;7.67;6.63;;;12.90;99.90;;;;;;4940097;29;20210;-81
2023/09/27 03:23:27;;;;;;;9.93;7.00;;;12.90;99.90;;;;;;4940774;29;20329;-80
2023/09/27 03:25:54;;;;;;;9.07;7.03;;;13.10;99.90;;;;;;4939243;29;20207;-80
2023/09/27 03:28:20;;;;;;;8.73;6.17;;;12.90;99.90;;;;;;4939375;29;20261;-81
2023/09/27 03:30:47;;;;;;;9.80;7.10;;;12.90;99.90;;;;;;4937670;29;20302;-81
2023/09/27 03:33:14;;;;;;;7.80;6.33;;;12.90;99.90;;;;;;4932045;29;20592;-78
2023/09/27 03:35:42;;;;;;;8.20;6.53;;;12.80;99.90;;;;;;4939705;29;20766;-80
2023/09/27 03:38:08;;;;;;;9.90;6.80;;;12.70;99.90;;;;;;4938667;29;20239;-80
2023/09/27 03:40:40;;;;;;;9.30;6.83;;;12.70;99.90;;;;;;4939226;29;20745;-81
2023/09/27 03:43:07;;;;;;;8.53;6.47;;;12.70;99.90;;;;;;4941757;29;20207;-81
2023/09/27 03:45:35;;;;;;;8.80;6.37;;;12.80;99.90;;;;;;4939901;29;20203;-81
2023/09/27 03:48:02;;;;;;;7.80;6.37;;;12.70;99.90;;;;;;4938993;29;20620;-81
2023/09/27 03:50:29;;;;;;;6.33;5.67;;;12.60;99.90;;;;;;4939535;29;20327;-80
2023/09/27 03:52:57;;;;;;;14.33;8.60;;;12.50;99.90;;;;;;4939964;29;20232;-81
2023/09/27 03:55:24;;;;;;;9.33;6.90;;;12.50;99.90;;;;;;4939388;29;20702;-80
2023/09/27 03:57:52;;;;;;;11.33;7.67;;;12.40;99.90;;;;;;4938458;29;20237;-81
2023/09/27 04:00:20;;;;;;;9.67;6.40;;;12.50;99.90;;;;;;4936577;29;20279;-79
2023/09/27 04:02:47;;;;;;;7.83;6.37;;;12.40;99.90;;;;;;4938489;29;20230;-81
2023/09/27 04:05:16;;;;;;;8.07;6.40;;;12.30;99.90;;;;;;4933862;29;20206;-82
2023/09/27 04:07:43;;;;;;;8.30;6.40;;;12.40;99.90;;;;;;4929677;29;20310;-81
2023/09/27 04:10:11;;;;;;;9.47;6.03;;;12.50;99.90;;;;;;4933552;29;20215;-80
2023/09/27 04:12:37;;;;;;;6.07;5.47;;;12.40;99.90;;;;;;4934053;29;20213;-81
2023/09/27 04:15:09;;;;;;;8.33;6.13;;;12.20;99.90;;;;;;4938815;29;20261;-80
2023/09/27 04:17:37;;;;;;;10.73;7.43;;;12.10;99.90;;;;;;4935396;29;20313;-79
2023/09/27 04:20:14;;;;;;;8.33;6.60;;;11.80;99.90;;;;;;4935224;29;20293;-81
2023/09/27 04:22:43;;;;;;;10.90;7.43;;;11.90;99.90;;;;;;4928046;29;20207;-81
2023/09/27 04:25:12;;;;;;;11.13;7.07;;;12.00;99.90;;;;;;4937806;29;20207;-80
2023/09/27 04:27:40;;;;;;;9.83;6.93;;;11.80;99.90;;;;;;4934877;29;20238;-81
2023/09/27 04:30:12;;;;;;;10.03;7.13;;;11.80;99.90;;;;;;4940882;29;20203;-82
2023/09/27 04:32:40;;;;;;;8.30;6.60;;;11.80;99.90;;;;;;4936814;29;20291;-79
2023/09/27 04:35:08;;;;;;;10.03;6.80;;;11.90;99.90;;;;;;4935772;29;20210;-78
2023/09/27 04:37:35;;;;;;;8.30;6.77;;;11.80;99.90;;;;;;4942384;29;20614;-79
2023/09/27 04:40:06;;;;;;;12.77;8.60;;;11.90;99.90;;;;;;4933453;29;20266;-79
2023/09/27 04:42:33;;;;;;;10.10;6.57;;;11.90;99.90;;;;;;4939743;29;20218;-78
2023/09/27 04:45:00;;;;;;;12.17;6.70;;;11.90;99.90;;;;;;4937915;29;20210;-79
2023/09/27 04:47:28;;;;;;;9.17;6.63;;;11.80;99.90;;;;;;4940487;29;20223;-80
2023/09/27 04:49:55;;;;;;;10.70;6.90;;;11.80;99.90;;;;;;4942365;29;20249;-80
2023/09/27 04:52:22;;;;;;;12.00;6.60;;;11.80;99.90;;;;;;4936011;29;20243;-80
2023/09/27 04:54:49;;;;;;;9.30;6.97;;;11.80;99.90;;;;;;4940865;29;20199;-81
2023/09/27 04:57:16;;;;;;;8.83;7.33;;;11.80;99.90;;;;;;4935540;29;20225;-80
2023/09/27 04:59:43;;;;;;;10.40;7.27;;;11.60;99.90;;;;;;4943322;29;20274;-80
2023/09/27 05:02:10;;;;;;;8.13;6.93;;;11.50;99.90;;;;;;4942119;29;20218;-79
2023/09/27 05:04:38;;;;;;;9.37;7.07;;;11.60;99.90;;;;;;4932875;29;20653;-79
2023/09/27 05:07:04;;;;;;;9.67;7.27;;;11.70;99.90;;;;;;4933653;29;20291;-80
2023/09/27 05:09:31;;;;;;;7.90;6.43;;;11.80;99.90;;;;;;4944438;29;20214;-81
2023/09/27 05:11:58;;;;;;;10.50;7.03;;;11.50;99.90;;;;;;4935042;29;20299;-81
2023/09/27 05:14:25;;;;;;;13.93;10.20;;;10.80;99.90;;;;;;4938875;29;20584;-80
2023/09/27 05:16:55;;;;;;;12.03;8.30;;;10.90;99.90;;;;;;4941489;29;20713;-79
2023/09/27 05:19:22;;;;;;;10.17;7.77;;;11.30;99.90;;;;;;4935353;29;20226;-80
2023/09/27 05:21:50;;;;;;;8.60;7.40;;;11.40;99.90;;;;;;4934372;29;20206;-77
2023/09/27 05:24:17;;;;;;;10.03;7.20;;;11.40;99.90;;;;;;4935075;29;20314;-79
2023/09/27 05:26:44;;;;;;;8.43;6.93;;;11.40;99.90;;;;;;4939215;29;20199;-80
2023/09/27 05:29:13;;;;;;;10.17;6.90;;;11.40;99.90;;;;;;4936193;29;20605;-79
2023/09/27 05:31:40;;;;;;;10.77;6.93;;;11.40;99.90;;;;;;4932365;29;20648;-80
2023/09/27 05:34:07;;;;;;;10.03;7.17;;;11.40;99.90;;;;;;4934418;29;20211;-79
2023/09/27 05:36:34;;;;;;;11.17;7.67;;;11.60;99.90;;;;;;4936170;29;20692;-79
2023/09/27 05:39:05;;;;;;;11.17;6.83;;;11.60;99.90;;;;;;4937481;29;20620;-79
2023/09/27 05:41:35;;;;;;;10.67;7.57;;;11.60;99.90;;;;;;4936637;29;20302;-81
2023/09/27 05:44:01;;;;;;;9.93;7.50;;;11.60;99.90;;;;;;4940823;29;20203;-81
2023/09/27 05:46:29;;;;;;;9.70;7.13;;;11.80;99.90;;;;;;4940326;29;20199;-81
2023/09/27 05:48:56;;;;;;;9.87;7.07;;;11.90;99.90;;;;;;4938427;29;20234;-79
2023/09/27 05:51:23;;;;;;;10.47;7.93;;;12.00;99.90;;;;;;4937237;29;20211;-79
2023/09/27 05:53:52;;;;;;;9.17;7.50;;;11.90;99.90;;;;;;4936522;29;20270;-80
2023/09/27 05:56:20;;;;;;;8.20;6.90;;;11.90;99.90;;;;;;4940372;29;20223;-80
2023/09/27 05:58:47;;;;;;;10.97;8.00;;;12.00;99.90;;;;;;4935637;29;20235;-81
2023/09/27 06:01:19;;;;;;;8.27;7.20;;;12.40;99.90;;;;;;4939691;29;20211;-78
2023/09/27 06:03:46;;;;;;;11.40;7.90;;;12.00;99.90;;;;;;4937776;29;20219;-79
2023/09/27 06:06:13;;;;;;;10.00;7.57;;;11.80;99.90;;;;;;4938355;29;20660;-80
2023/09/27 06:08:40;;;;;;;8.83;6.93;;;11.70;99.90;;;;;;4936654;29;20231;-78
2023/09/27 06:11:09;;;;;;;11.50;8.17;;;11.70;99.90;;;;;;4935122;29;20663;-80
2023/09/27 06:13:37;;;;;;;10.60;6.90;;;11.90;99.90;;;;;;4935279;29;20224;-80
2023/09/27 06:16:13;;;;;;;9.80;7.27;;;11.90;99.90;;;;;;4940740;29;20595;-79
2023/09/27 06:18:40;;;;;;;11.57;7.43;;;12.00;99.90;;;;;;4933460;29;20231;-81
2023/09/27 06:21:07;;;;;;;12.37;8.17;;;12.00;99.90;;;;;;4935753;29;20207;-80
2023/09/27 06:23:35;;;;;;;13.30;8.63;;;12.10;99.90;;;;;;4931485;29;20208;-79
2023/09/27 06:26:02;;;;;;;13.27;8.20;;;12.10;99.90;;;;;;4938404;29;20199;-78
2023/09/27 06:28:29;;;;;;;11.67;7.90;;;12.10;99.90;;;;;;4935152;29;20223;-78
2023/09/27 06:30:57;;;;;;;11.07;8.20;;;12.20;99.90;;;;;;4936504;29;20199;-81
2023/09/27 06:33:24;;;;;;;13.87;8.40;;;12.40;99.90;;;;;;4930088;29;20670;-81
2023/09/27 06:35:52;;;;;;;11.27;8.17;;;12.60;99.90;;;;;;4929205;29;20227;-79
2023/09/27 06:38:21;;;;;;;9.07;7.67;;;12.50;99.90;;;;;;4935691;29;20259;-80
2023/09/27 06:40:49;;;;;;;9.17;7.37;;;12.50;99.90;;;;;;4929438;29;20220;-79
2023/09/27 06:43:16;;;;;;;9.93;7.17;;;12.50;99.90;;;;;;4928081;29;20285;-79
2023/09/27 06:45:43;;;;;;;11.50;8.70;;;12.60;99.90;;;;;;4932698;29;20207;-78
2023/09/27 06:48:11;;;;;;;12.83;9.10;;;12.90;99.90;;;;;;4927999;29;20251;-77
2023/09/27 06:50:41;;;;;;;11.23;7.90;;;13.00;99.90;;;;;;4928283;29;20199;-78
2023/09/27 06:53:09;;;;;;;12.33;8.20;;;13.20;99.90;;;;;;4929136;29;20207;-77
2023/09/27 06:55:36;;;;;;;11.37;8.83;;;13.50;99.90;;;;;;4930421;29;20281;-77
2023/09/27 06:58:03;;;;;;;9.17;7.20;;;13.60;99.90;;;;;;4930382;29;20229;-78
2023/09/27 07:00:30;;;;;;;15.00;7.97;;;13.70;99.90;;;;;;4924690;29;20208;-77
2023/09/27 07:02:57;;;;;;;8.47;6.87;;;13.70;99.90;;;;;;4929657;29;20267;-78
2023/09/27 07:05:26;;;;;;;9.10;7.10;;;13.70;99.90;;;;;;4931959;29;20207;-78
2023/09/27 07:07:54;;;;;;;9.90;7.93;;;13.90;99.90;;;;;;4930788;29;20628;-78
2023/09/27 07:10:23;;;;;;;8.57;6.50;;;14.00;99.90;;;;;;4930808;29;20227;-78
2023/09/27 07:12:50;;;;;;;9.20;6.70;;;14.20;99.90;;;;;;4932239;29;20227;-78
2023/09/27 07:15:17;;;;;;;8.20;6.43;;;14.20;99.90;;;;;;4931344;29;20686;-78
2023/09/27 07:17:44;;;;;;;8.40;6.20;;;14.30;99.90;;;;;;4931910;29;20258;-78
2023/09/27 07:20:23;;;;;;;8.03;5.90;;;14.50;99.90;;;;;;4927424;29;20203;-78
2023/09/27 07:22:52;;;;;;;8.75;6.28;;;14.70;99.90;;;;;;4932822;29;20564;-78
2023/09/27 07:25:20;;;;;;;10.53;5.43;;;14.90;99.90;;;;;;4930115;29;20211;-78
2023/09/27 07:27:48;;;;;;;9.23;5.60;;;15.10;99.90;;;;;;4930557;29;20224;-79
2023/09/27 07:30:18;;;;;;;7.43;6.22;;;15.60;99.90;;;;;;4927415;29;20208;-77
2023/09/27 07:32:45;;;;;;;7.07;5.45;;;16.30;99.90;;;;;;4932580;29;20290;-77
2023/09/27 07:35:14;;;;;;;5.65;5.13;;;18.50;99.90;;;;;;4930956;29;20208;-79
2023/09/27 07:37:41;;;;;;;6.15;4.50;;;19.00;99.90;;;;;;4922256;29;20224;-79
2023/09/27 07:40:12;;;;;;;5.85;4.50;;;18.50;99.90;;;;;;4925853;29;20333;-79
2023/09/27 07:42:41;;;;;;;8.25;4.50;;;18.10;99.90;;;;;;4932509;29;20235;-79
2023/09/27 07:45:14;;;;;;;7.55;4.80;;;17.70;99.90;;;;;;4926210;29;20204;-78
2023/09/27 07:47:41;;;;;;;6.50;5.60;;;17.70;99.90;;;;;;4927204;29;20219;-78
2023/09/27 07:50:10;;;;;;;8.00;5.93;;;17.30;99.90;;;;;;4933942;29;20203;-79
2023/09/27 07:52:37;;;;;;;8.00;5.78;;;17.20;99.90;;;;;;4927199;29;20208;-78
2023/09/27 07:55:04;;;;;;;6.15;5.30;;;17.30;99.90;;;;;;4929555;29;20286;-78
2023/09/27 07:57:32;;;;;;;8.02;6.03;;;17.40;99.90;;;;;;4930128;29;20222;-79
2023/09/27 08:00:08;;;;;;;9.38;6.68;;;17.50;99.90;;;;;;4932693;29;20339;-80
2023/09/27 08:02:35;;;;;;;8.02;6.53;;;17.30;99.90;;;;;;4932346;29;20262;-78
2023/09/27 08:05:09;;;;;;;6.68;5.97;;;17.20;99.90;;;;;;4937079;29;20215;-78
2023/09/27 08:07:36;;;;;;;9.43;6.13;;;17.30;99.90;;;;;;4928064;29;20306;-78
2023/09/27 08:10:03;;;;;;;9.27;5.97;;;17.10;99.90;;;;;;4927470;29;20213;-78
2023/09/27 08:12:31;;;;;;;10.80;7.05;;;17.30;99.90;;;;;;4931493;29;20207;-78
2023/09/27 08:15:00;;;;;;;10.88;7.60;;;17.30;99.90;;;;;;4934649;29;20207;-79
2023/09/27 08:17:27;;;;;;;9.50;7.88;;;17.20;99.90;;;;;;4925340;29;20234;-78
2023/09/27 08:19:54;;;;;;;9.65;7.75;;;17.40;99.90;;;;;;4927735;29;20207;-79
2023/09/27 08:22:20;;;;;;;9.35;7.72;;;17.50;99.90;;;;;;4930018;29;20671;-78
2023/09/27 08:24:47;;;;;;;12.95;7.85;;;17.50;99.90;;;;;;4927781;29;20694;-79
2023/09/27 08:27:14;;;;;;;9.27;7.22;;;17.60;99.90;;;;;;4924902;29;20208;-79
2023/09/27 08:29:42;;;;;;;11.02;7.50;;;17.50;99.90;;;;;;4930741;29;20267;-78
2023/09/27 08:32:10;;;;;;;9.60;7.10;;;17.60;99.90;;;;;;4930944;29;20232;-78
2023/09/27 08:34:37;;;;;;;8.80;6.97;;;17.70;99.90;;;;;;4920976;29;20290;-78
2023/09/27 08:37:04;;;;;;;9.40;7.28;;;17.80;99.90;;;;;;4928203;29;20223;-79
2023/09/27 08:39:31;;;;;;;11.80;8.07;;;17.90;99.90;;;;;;4927506;29;20204;-77
2023/09/27 08:41:59;;;;;;;12.73;8.93;;;17.90;99.90;;;;;;4925247;29;20240;-78
2023/09/27 08:44:26;;;;;;;10.68;8.60;;;17.90;99.90;;;;;;4928827;29;20215;-79
2023/09/27 08:46:55;;;;;;;14.38;12.07;;;18.00;99.90;;;;;;4928907;29;20214;-79
2023/09/27 08:49:25;;;;;;;12.00;9.50;;;18.20;99.90;;;;;;4933183;29;20226;-77
2023/09/27 08:51:53;;;;;;;12.45;8.52;;;18.40;99.90;;;;;;4924312;29;20239;-78
2023/09/27 08:54:22;;;;;;;10.85;8.00;;;18.60;99.90;;;;;;4930998;29;20203;-79
2023/09/27 08:56:50;;;;;;;11.63;8.18;;;18.80;99.90;;;;;;4927961;29;20314;-78
2023/09/27 08:59:18;;;;;;;13.43;8.95;;;18.80;99.90;;;;;;4929876;29;20219;-78
2023/09/27 09:01:46;;;;;;;13.70;8.30;;;18.90;99.90;;;;;;4927637;29;20693;-78
2023/09/27 09:04:13;;;;;;;13.93;8.45;;;19.10;99.90;;;;;;4928510;29;20207;-78
2023/09/27 09:06:42;;;;;;;12.93;7.75;;;19.10;99.90;;;;;;4923606;29;20235;-78
2023/09/27 09:09:11;;;;;;;11.98;7.50;;;19.40;99.90;;;;;;4927524;29;20736;-78
2023/09/27 09:11:43;;;;;;;9.45;6.65;;;19.60;99.90;;;;;;4937128;29;20207;-79
2023/09/27 09:14:10;;;;;;;8.35;6.75;;;19.60;99.90;;;;;;4938176;29;20207;-78
2023/09/27 09:16:47;;;;;;;9.55;6.80;;;19.70;99.90;;;;;;4938161;29;20199;-77
2023/09/27 09:19:20;;;;;;;8.43;6.25;;;19.70;99.90;;;;;;4942088;29;20226;-80
2023/09/27 09:21:56;;;;;;;10.30;7.20;;;20.00;99.90;;;;;;4935210;29;20222;-80
2023/09/27 09:24:23;;;;;;;9.98;7.15;;;20.30;99.90;;;;;;4942485;29;20215;-78
2023/09/27 09:27:05;;;;;;;9.65;6.55;;;20.70;99.90;;;;;;4939799;29;20214;-80
2023/09/27 09:29:45;;;;;;;11.75;6.97;;;21.00;99.90;;;;;;4932042;29;20231;-78
2023/09/27 09:32:13;;;;;;;7.75;6.45;;;20.90;99.90;;;;;;4931765;29;20214;-80
2023/09/27 09:34:41;;;;;;;8.68;6.00;;;21.30;99.90;;;;;;4935826;29;20210;-79
2023/09/27 09:37:18;;;;;;;8.63;5.97;;;21.70;99.90;;;;;;4926971;29;20274;-80
2023/09/27 09:39:46;;;;;;;6.75;6.15;;;22.10;99.90;;;;;;4930935;29;20203;-80
2023/09/27 09:42:14;;;;;;;9.25;7.32;;;22.50;99.90;;;;;;4935038;29;20250;-78
2023/09/27 09:44:41;;;;;;;10.82;8.60;;;22.90;99.90;;;;;;4936921;29;20207;-79
2023/09/27 09:47:13;;;;;;;11.05;9.23;;;22.60;99.90;;;;;;4934371;29;20307;-78
2023/09/27 09:49:41;;;;;;;9.23;8.15;;;22.20;99.90;;;;;;4936428;29;20204;-79
2023/09/27 09:52:12;;;;;;;10.75;8.98;;;22.40;99.90;;;;;;4932853;29;20307;-78
2023/09/27 09:54:46;;;;;;;10.70;7.47;;;22.40;99.90;;;;;;4934378;29;20208;-79
2023/09/27 09:57:14;;;;;;;8.95;6.90;;;22.60;99.90;;;;;;4938861;29;20344;-79
2023/09/27 09:59:52;;;;;;;9.90;7.53;;;22.70;99.90;;;;;;4939795;29;20207;-79
2023/09/27 10:02:21;;;;;;;7.68;6.25;;;22.90;99.90;;;;;;4933524;29;20203;-79
2023/09/27 10:04:49;;;;;;;10.70;6.55;;;22.70;99.90;;;;;;4933108;29;20622;-78
2023/09/27 10:07:17;;;;;;;7.55;6.10;;;22.60;99.90;;;;;;4938270;29;20207;-79
2023/09/27 10:09:47;;;;;;;8.25;6.63;;;22.90;99.90;;;;;;4936566;29;20556;-78
2023/09/27 10:12:16;;;;;;;9.38;7.10;;;23.10;99.90;;;;;;4934093;29;20226;-78
2023/09/27 10:14:44;;;;;;;7.88;6.80;;;22.70;99.90;;;;;;4936160;29;20203;-78
2023/09/27 10:17:20;;;;;;;7.20;6.13;;;22.20;99.90;;;;;;4931977;29;20313;-78
2023/09/27 10:20:11;;;;;;;7.30;5.93;;;22.60;99.90;;;;;;4935169;29;20243;-78
2023/09/27 10:22:39;;;;;;;7.25;5.80;;;23.20;99.90;;;;;;4932372;29;20203;-79
2023/09/27 10:25:34;;;;;;;7.25;5.75;;;23.30;99.90;;;;;;4935113;29;20211;-78
2023/09/27 10:28:08;;;;;;;7.18;6.15;;;23.60;99.90;;;;;;4941661;28;20581;-78
2023/09/27 10:31:07;;;;;;;10.95;6.63;;;23.00;99.90;;;;;;4929585;29;20231;-78
2023/09/27 10:33:33;;;;;;;9.98;6.97;;;22.80;99.90;;;;;;4935853;29;20211;-77
2023/09/27 10:36:28;;;;;;;9.18;6.00;;;22.80;99.90;;;;;;4940642;29;20202;-78
2023/09/27 10:39:05;;;;;;;12.20;7.30;;;23.40;99.90;;;;;;4930428;29;20254;-78
2023/09/27 10:41:44;;;;;;;9.23;7.00;;;23.10;99.90;;;;;;4936293;29;20202;-78
2023/09/27 10:44:12;;;;;;;8.82;6.72;;;23.80;99.90;;;;;;4940498;29;20285;-78
2023/09/27 10:46:43;;;;;;;11.40;7.60;;;23.70;99.90;;;;;;4934606;29;20230;-77
2023/09/27 10:49:10;;;;;;;9.57;6.93;;;23.10;99.90;;;;;;4932662;29;20282;-77
2023/09/27 10:51:37;;;;;;;6.70;5.70;;;22.90;99.90;;;;;;4937635;29;20648;-77
2023/09/27 10:54:08;;;;;;;6.25;5.00;;;23.00;99.90;;;;;;4936259;29;20632;-78
2023/09/27 10:56:35;;;;;;;5.82;4.72;;;23.20;99.90;;;;;;4931377;29;20204;-78
2023/09/27 10:59:04;;;;;;;4.97;4.47;;;23.80;99.90;;;;;;4940077;29;20242;-78
2023/09/27 11:01:33;;;;;;;8.75;4.10;;;24.30;99.90;;;;;;4941071;29;20683;-78
2023/09/27 11:04:01;;;;;;;7.72;4.38;;;24.20;99.90;;;;;;4938312;29;20207;-78
2023/09/27 11:06:29;;;;;;;7.07;3.70;;;24.30;99.90;;;;;;4945023;29;20207;-79
2023/09/27 11:09:05;;;;;;;5.38;3.65;;;24.10;99.90;;;;;;4941642;29;20227;-78
2023/09/27 11:11:32;;;;;;;3.78;3.28;;;24.60;99.90;;;;;;4936029;29;20730;-78
2023/09/27 11:13:58;;;;;;;4.72;3.28;;;24.90;99.90;;;;;;4940845;29;20213;-79
2023/09/27 11:16:27;;;;;;;3.85;3.15;;;24.70;99.90;;;;;;4932539;29;20218;-79
2023/09/27 11:18:56;;;;;;;3.92;3.10;;;24.60;99.90;;;;;;4936582;29;20235;-78
2023/09/27 11:21:25;;;;;;;3.28;2.80;;;24.50;99.90;;;;;;4942625;29;20226;-79
2023/09/27 11:23:53;;;;;;;3.03;2.72;;;24.50;99.90;;;;;;4939449;29;20722;-78
2023/09/27 11:26:20;;;;;;;4.82;3.17;;;24.70;99.90;;;;;;4933123;29;20686;-79
2023/09/27 11:28:55;;;;;;;3.13;2.85;;;25.00;99.90;;;;;;4934561;29;20230;-80
2023/09/27 11:31:23;;;;;;;3.45;3.00;;;25.20;99.90;;;;;;4935102;29;20249;-79
2023/09/27 11:33:51;;;;;;;4.63;3.10;;;25.50;99.90;;;;;;4933430;29;20203;-80
2023/09/27 11:36:18;;;;;;;3.35;2.97;;;25.30;99.90;;;;;;4939560;29;20214;-80
2023/09/27 11:38:49;;;;;;;4.63;2.83;;;25.30;99.90;;;;;;4934469;29;20234;-79
2023/09/27 11:41:18;;;;;;;4.47;3.13;;;25.10;99.90;;;;;;4933420;29;20222;-80
2023/09/27 11:43:46;;;;;;;2.95;2.75;;;25.00;99.90;;;;;;4937925;29;20207;-80
2023/09/27 11:46:12;;;;;;;4.65;2.55;;;25.00;99.90;;;;;;4936641;29;20237;-79
2023/09/27 11:48:40;;;;;;;3.53;2.80;;;25.00;99.90;;;;;;4941642;29;20694;-78
2023/09/27 11:51:09;;;;;;;4.07;2.80;;;24.90;99.90;;;;;;4933188;29;20233;-79
2023/09/27 11:53:36;;;;;;;2.92;2.72;;;25.00;99.90;;;;;;4933257;29;20267;-79
2023/09/27 11:56:03;;;;;;;4.80;2.88;;;24.80;99.90;;;;;;4937757;29;20213;-79
2023/09/27 11:58:30;;;;;;;4.30;3.90;;;24.90;99.90;;;;;;4929980;29;20219;-79
2023/09/27 12:00:56;;;;;;;5.32;3.13;;;24.80;99.90;;;;;;4936801;29;20218;-80
2023/09/27 12:03:23;;;;;;;3.33;2.80;;;24.90;99.90;;;;;;4935703;29;20207;-78
2023/09/27 12:05:50;;;;;;;2.90;2.70;;;25.10;99.90;;;;;;4934412;29;20702;-79
2023/09/27 12:08:18;;;;;;;3.50;2.60;;;25.00;99.90;;;;;;4934738;29;20246;-78
2023/09/27 12:10:45;;;;;;;4.00;2.80;;;25.10;99.90;;;;;;4936586;29;20203;-79
2023/09/27 12:13:12;;;;;;;4.40;2.60;;;25.30;99.90;;;;;;4932014;29;20213;-79
2023/09/27 12:15:38;;;;;;;3.97;2.70;;;25.30;99.90;;;;;;4932054;29;20203;-79
2023/09/27 12:18:05;;;;;;;2.65;2.45;;;25.50;99.90;;;;;;4937678;29;20241;-80
2023/09/27 12:20:33;;;;;;;3.00;2.70;;;25.60;99.90;;;;;;4931296;29;20214;-78
2023/09/27 12:22:59;;;;;;;4.10;2.83;;;25.40;99.90;;;;;;4931460;29;20207;-78
2023/09/27 12:25:27;;;;;;;5.00;2.58;;;25.20;99.90;;;;;;4931692;29;20228;-79
2023/09/27 12:27:54;;;;;;;4.32;2.90;;;25.20;99.90;;;;;;4933927;29;20706;-79
2023/09/27 12:30:21;;;;;;;4.13;2.92;;;25.10;99.90;;;;;;4929936;29;20215;-79
2023/09/27 12:32:48;;;;;;;3.17;2.88;;;25.30;99.90;;;;;;4928835;29;20202;-80
2023/09/27 12:35:15;;;;;;;3.35;2.58;;;25.30;99.90;;;;;;4940350;29;20290;-80
2023/09/27 12:37:41;;;;;;;6.07;3.20;;;25.70;99.90;;;;;;4930531;29;20234;-79
2023/09/27 12:40:09;;;;;;;3.92;3.50;;;25.60;99.90;;;;;;4934115;29;20211;-79
2023/09/27 12:42:37;;;;;;;27.80;21.73;;;25.50;99.90;;;;;;4934032;29;20203;-80
2023/09/27 12:45:05;;;;;;;7.25;4.18;;;25.50;99.90;;;;;;4935945;29;20199;-80
2023/09/27 12:47:32;;;;;;;5.60;3.72;;;25.40;99.90;;;;;;4930192;29;20286;-79
2023/09/27 12:50:02;;;;;;;3.67;3.38;;;25.30;99.90;;;;;;4934292;29;20210;-79